Palermo, West Virginia
Current Conditions -  °F | °C
As of 5:51 PM on Wednesday 17 Dec 2014 (Local Time) from KHTS Reporting Station
Overcast Overcast  
Wind Chill: 27°   Ceiling: 2400
Heat Index: 34°   Visibility: 10mi
Dew Point: 25°   Wind: 9mph
Humidity: 70%   Direction: 260°W
Pressure: 30.2"   Gusts: NA
Location:  38.2555°N, 82.2488°W
Report Text: KHTS 172251Z 26008KT 10SM OVC024 01/M04 A3020 RMK AO2 SLP232 T00111039
Loading
Personal Weather Stations






























Interactive Weather Map New forecast layout! Learn more

10-Day Weather Forecast

Advertisements
Track Severe Weather on mobile